Time;durP1;ratioP1;P1;durP2;ratioP2;P2;SDS_P1;SDS_P2;PMS_P1;PMS_P2;Temp;Humidity;BMP_temperature;BMP_pressure;BME280_temperature;BME280_humidity;BME280_pressure;Samples;Min_cycle;Max_cycle;Signal;HPM_P1;HPM_P2
2022/03/19 00:01:02;;;;;;;;;;;;;;;7.11;100.00;104426.75;5100202;28;19920;-79
2022/03/19 00:03:28;;;;;;;;;;;;;;;7.06;100.00;104424.44;5068015;28;19927;-80
2022/03/19 00:05:53;;;;;;;;;;;;;;;7.05;100.00;104433.97;5077950;28;19917;-80
2022/03/19 00:08:18;;;;;;;;;;;;;;;7.00;100.00;104433.47;5076415;28;20295;-79
2022/03/19 00:10:44;;;;;;;;;;;;;;;7.01;100.00;104426.56;5076214;28;19974;-79
2022/03/19 00:13:17;;;;;;;;;;;;;;;7.03;100.00;104437.22;5075360;28;19916;-79
2022/03/19 00:15:43;;;;;;;;;;;;;;;7.04;100.00;104432.13;5077893;28;19924;-80
2022/03/19 00:18:08;;;;;;;;;;;;;;;7.03;100.00;104434.59;5060827;28;19982;-80
2022/03/19 00:20:36;;;;;;;;;;;;;;;6.98;100.00;104428.84;5109304;28;20348;-79
2022/03/19 00:23:08;;;;;;;;;;;;;;;6.96;100.00;104426.06;5075328;28;19916;-80
2022/03/19 00:25:33;;;;;;;;;;;;;;;6.96;100.00;104432.97;5109873;28;19920;-80
2022/03/19 00:28:00;;;;;;;;;;;;;;;6.97;100.00;104432.22;5071447;28;19927;-80
2022/03/19 00:30:25;;;;;;;;;;;;;;;6.95;100.00;104429.44;5074079;28;19917;-80
2022/03/19 00:32:51;;;;;;;;;;;;;;;6.89;100.00;104431.41;5064251;28;19970;-80
2022/03/19 00:35:16;;;;;;;;;;;;;;;6.83;100.00;104439.50;5093850;28;19920;-81
2022/03/19 00:37:46;;;;;;;;;;;;;;;6.81;100.00;104434.88;5056267;28;20225;-80
2022/03/19 00:40:13;;;;;;;;;;;;;;;6.75;100.00;104440.38;5093662;28;19955;-79
2022/03/19 00:42:38;;;;;;;;;;;;;;;6.70;100.00;104436.34;5074277;28;19924;-79
2022/03/19 00:45:07;;;;;;;;;;;;;;;6.69;100.00;104441.41;5059309;28;20397;-79
2022/03/19 00:47:33;;;;;;;;;;;;;;;6.61;100.00;104443.19;5058859;28;19931;-80
2022/03/19 00:49:58;;;;;;;;;;;;;;;6.54;100.00;104438.97;5109381;28;19916;-80
2022/03/19 00:52:24;;;;;;;;;;;;;;;6.46;100.00;104430.28;5058667;28;20383;-79
2022/03/19 00:54:50;;;;;;;;;;;;;;;6.44;100.00;104441.31;5081556;28;19927;-79
2022/03/19 00:57:15;;;;;;;;;;;;;;;6.50;100.00;104443.69;5055225;28;19927;-80
2022/03/19 00:59:40;;;;;;;;;;;;;;;6.44;100.00;104437.00;5073152;28;19916;-79
2022/03/19 01:02:06;;;;;;;;;;;;;;;6.44;100.00;104441.31;5062397;28;19935;-80
2022/03/19 01:04:31;;;;;;;;;;;;;;;6.52;100.00;104436.94;5075184;28;20006;-79
2022/03/19 01:06:56;;;;;;;;;;;;;;;6.52;100.00;104434.31;5102928;28;19920;-79
2022/03/19 01:09:21;;;;;;;;;;;;;;;6.51;100.00;104432.44;5054958;28;20004;-80
2022/03/19 01:11:47;;;;;;;;;;;;;;;6.46;100.00;104439.78;5055518;28;19963;-79
2022/03/19 01:14:13;;;;;;;;;;;;;;;6.46;100.00;104440.75;5073381;28;20372;-80
2022/03/19 01:16:40;;;;;;;;;;;;;;;6.43;100.00;104435.16;5061136;28;19916;-79
2022/03/19 01:19:05;;;;;;;;;;;;;;;6.38;100.00;104435.41;5097244;28;20382;-80
2022/03/19 01:21:30;;;;;;;;;;;;;;;6.36;100.00;104431.69;5112946;28;19920;-80
2022/03/19 01:24:05;;;;;;;;;;;;;;;6.30;100.00;104431.94;5112229;28;19966;-80
2022/03/19 01:26:31;;;;;;;;;;;;;;;6.30;100.00;104439.78;5097085;28;20335;-80
2022/03/19 01:28:57;;;;;;;;;;;;;;;6.27;100.00;104427.28;5112923;28;19916;-80
2022/03/19 01:31:25;;;;;;;;;;;;;;;6.26;100.00;104422.84;5112713;28;19935;-80
2022/03/19 01:33:58;;;;;;;;;;;;;;;6.28;100.00;104425.63;5112635;28;19959;-79
2022/03/19 01:36:23;;;;;;;;;;;;;;;6.24;100.00;104429.56;5079076;28;19916;-79
2022/03/19 01:38:49;;;;;;;;;;;;;;;6.22;100.00;104428.47;5110342;28;19946;-80
2022/03/19 01:41:14;;;;;;;;;;;;;;;6.16;100.00;104421.63;5081629;28;19943;-79
2022/03/19 01:43:39;;;;;;;;;;;;;;;6.16;100.00;104433.03;5112346;28;20061;-80
2022/03/19 01:46:05;;;;;;;;;;;;;;;6.18;100.00;104423.66;5070375;28;19917;-79
2022/03/19 01:48:30;;;;;;;;;;;;;;;6.19;100.00;104420.28;5057741;28;19920;-79
2022/03/19 01:50:56;;;;;;;;;;;;;;;6.13;100.00;104416.06;5074953;28;19917;-79
2022/03/19 01:53:21;;;;;;;;;;;;;;;6.05;100.00;104416.13;5065597;28;20282;-79
2022/03/19 01:55:46;;;;;;;;;;;;;;;6.04;100.00;104421.19;5099675;28;19970;-79
2022/03/19 01:58:13;;;;;;;;;;;;;;;6.00;100.00;104414.69;5056485;28;19923;-79
2022/03/19 02:00:38;;;;;;;;;;;;;;;5.92;100.00;104412.88;5070526;28;19920;-80
2022/03/19 02:03:08;;;;;;;;;;;;;;;5.89;100.00;104409.94;5092548;28;20018;-81
2022/03/19 02:05:34;;;;;;;;;;;;;;;5.87;100.00;104406.19;5097455;28;19942;-80
2022/03/19 02:07:59;;;;;;;;;;;;;;;5.87;100.00;104408.81;5106511;28;20045;-80
2022/03/19 02:10:24;;;;;;;;;;;;;;;5.85;100.00;104406.00;5041637;28;19933;-80
2022/03/19 02:12:50;;;;;;;;;;;;;;;5.82;100.00;104395.22;5062000;28;19920;-79
2022/03/19 02:15:16;;;;;;;;;;;;;;;5.76;100.00;104402.38;5078071;28;19923;-79
2022/03/19 02:17:42;;;;;;;;;;;;;;;5.69;100.00;104395.53;5066733;28;19920;-80
2022/03/19 02:20:07;;;;;;;;;;;;;;;5.64;100.00;104393.13;5077964;28;20698;-80
2022/03/19 02:22:33;;;;;;;;;;;;;;;5.59;100.00;104395.22;5078131;28;19920;-80
2022/03/19 02:27:43;;;;;;;;;;;;;;;5.52;100.00;104395.31;5092636;28;19938;-80
2022/03/19 02:30:10;;;;;;;;;;;;;;;5.45;100.00;104385.81;5065782;28;19916;-80
2022/03/19 02:32:37;;;;;;;;;;;;;;;5.44;100.00;104385.66;5057722;28;19917;-80
2022/03/19 02:35:04;;;;;;;;;;;;;;;5.42;100.00;104393.31;5076355;28;19941;-79
2022/03/19 02:37:43;;;;;;;;;;;;;;;5.39;100.00;104387.75;5077496;28;19912;-80
2022/03/19 02:40:09;;;;;;;;;;;;;;;5.37;100.00;104395.41;5077348;28;19939;-79
2022/03/19 02:42:35;;;;;;;;;;;;;;;5.32;100.00;104398.28;5076364;28;19924;-79
2022/03/19 02:45:00;;;;;;;;;;;;;;;5.27;100.00;104392.53;5070799;28;20418;-80
2022/03/19 02:47:25;;;;;;;;;;;;;;;5.29;100.00;104391.00;5110854;28;19920;-80
2022/03/19 02:49:51;;;;;;;;;;;;;;;5.28;100.00;104383.91;5077959;28;19969;-80
2022/03/19 02:52:16;;;;;;;;;;;;;;;5.23;100.00;104382.47;5094229;28;19927;-78
2022/03/19 02:54:46;;;;;;;;;;;;;;;5.32;100.00;104386.13;5057903;28;19974;-78
2022/03/19 02:57:12;;;;;;;;;;;;;;;5.30;100.00;104377.19;5057153;28;19927;-78
2022/03/19 02:59:37;;;;;;;;;;;;;;;5.36;100.00;104371.72;5037563;28;19925;-78
2022/03/19 03:02:04;;;;;;;;;;;;;;;5.39;100.00;104373.00;5070622;28;19920;-78
2022/03/19 03:04:31;;;;;;;;;;;;;;;5.41;100.00;104373.19;5067535;28;19969;-78
2022/03/19 03:06:57;;;;;;;;;;;;;;;5.63;100.00;104367.78;5066216;28;19920;-77
2022/03/19 03:09:24;;;;;;;;;;;;;;;5.68;100.00;104366.59;5077140;28;19916;-78
2022/03/19 03:11:49;;;;;;;;;;;;;;;5.64;100.00;104362.72;5077210;28;19916;-79
2022/03/19 03:14:15;;;;;;;;;;;;;;;5.61;100.00;104359.75;5060776;28;19928;-79
2022/03/19 03:16:43;;;;;;;;;;;;;;;5.61;100.00;104362.38;5056808;28;19960;-80
2022/03/19 03:19:10;;;;;;;;;;;;;;;5.58;100.00;104360.31;5057109;28;19917;-80
2022/03/19 03:21:36;;;;;;;;;;;;;;;5.51;100.00;104352.53;5056450;28;19970;-80
2022/03/19 03:24:06;;;;;;;;;;;;;;;5.51;100.00;104354.22;5057270;28;19920;-79
2022/03/19 03:26:32;;;;;;;;;;;;;;;5.46;100.00;104356.31;5098495;28;19994;-80
2022/03/19 03:28:58;;;;;;;;;;;;;;;5.43;100.00;104347.22;5076334;28;19920;-80
2022/03/19 03:31:23;;;;;;;;;;;;;;;5.38;100.00;104345.00;5069785;28;19912;-79
2022/03/19 03:33:51;;;;;;;;;;;;;;;5.37;100.00;104352.66;5056946;28;19923;-80
2022/03/19 03:36:19;;;;;;;;;;;;;;;5.36;100.00;104349.13;5073553;28;19916;-79
2022/03/19 03:38:45;;;;;;;;;;;;;;;5.36;100.00;104354.38;5076676;28;20275;-79
2022/03/19 03:41:10;;;;;;;;;;;;;;;5.30;100.00;104339.66;5110183;28;19916;-80
2022/03/19 03:43:38;;;;;;;;;;;;;;;5.24;100.00;104346.81;5093462;28;19924;-80
2022/03/19 03:46:04;;;;;;;;;;;;;;;5.22;100.00;104337.13;5056550;28;20295;-80
2022/03/19 03:48:30;;;;;;;;;;;;;;;5.20;100.00;104330.81;5073301;28;19934;-79
2022/03/19 03:50:56;;;;;;;;;;;;;;;5.17;100.00;104339.94;5094308;28;19916;-80
2022/03/19 03:53:26;;;;;;;;;;;;;;;5.18;100.00;104329.69;5094104;28;20464;-78
2022/03/19 03:55:52;;;;;;;;;;;;;;;5.18;100.00;104323.53;5076445;28;20379;-79
2022/03/19 03:58:18;;;;;;;;;;;;;;;5.13;100.00;104325.63;5074257;28;20011;-79
2022/03/19 04:00:43;;;;;;;;;;;;;;;5.12;100.00;104328.06;5062842;28;19916;-79
2022/03/19 04:03:11;;;;;;;;;;;;;;;5.14;100.00;104321.31;5070934;28;19920;-79
2022/03/19 04:05:36;;;;;;;;;;;;;;;5.12;100.00;104325.44;5076351;28;19961;-79
2022/03/19 04:08:03;;;;;;;;;;;;;;;5.13;100.00;104329.94;5076133;28;20275;-79
2022/03/19 04:10:29;;;;;;;;;;;;;;;5.13;100.00;104323.00;5075822;28;20309;-79
2022/03/19 04:12:56;;;;;;;;;;;;;;;5.15;100.00;104320.56;5065510;28;20062;-78
2022/03/19 04:15:21;;;;;;;;;;;;;;;5.15;100.00;104316.25;5089106;28;20390;-79
2022/03/19 04:17:47;;;;;;;;;;;;;;;5.17;100.00;104316.44;5065596;28;19920;-78
2022/03/19 04:20:15;;;;;;;;;;;;;;;5.13;100.00;104319.47;5060915;28;21832;-79
2022/03/19 04:22:41;;;;;;;;;;;;;;;5.08;100.00;104316.34;5047860;28;19920;-79
2022/03/19 04:25:12;;;;;;;;;;;;;;;5.06;100.00;104319.53;5068921;28;19917;-79
2022/03/19 04:27:38;;;;;;;;;;;;;;;5.07;100.00;104318.78;5061904;28;19918;-79
2022/03/19 04:30:04;;;;;;;;;;;;;;;5.07;100.00;104324.91;5083950;28;20014;-80
2022/03/19 04:32:29;;;;;;;;;;;;;;;5.06;100.00;104319.53;5066281;28;20642;-79
2022/03/19 04:34:56;;;;;;;;;;;;;;;5.08;100.00;104315.41;5092333;28;19920;-77
2022/03/19 04:37:21;;;;;;;;;;;;;;;5.06;100.00;104309.06;5073901;28;20003;-78
2022/03/19 04:39:46;;;;;;;;;;;;;;;5.07;100.00;104314.47;5093626;28;19993;-78
2022/03/19 04:42:11;;;;;;;;;;;;;;;5.08;100.00;104311.13;5074662;28;19916;-79
2022/03/19 04:44:41;;;;;;;;;;;;;;;5.08;100.00;104312.78;5074110;28;19924;-78
2022/03/19 04:47:06;;;;;;;;;;;;;;;5.11;100.00;104308.84;5054578;28;19917;-79
2022/03/19 04:49:32;;;;;;;;;;;;;;;5.11;100.00;104310.50;5091350;28;19927;-78
2022/03/19 04:51:57;;;;;;;;;;;;;;;5.09;100.00;104304.19;5070508;28;20436;-77
2022/03/19 04:54:23;;;;;;;;;;;;;;;5.07;100.00;104308.34;5061907;28;19921;-77
2022/03/19 04:56:48;;;;;;;;;;;;;;;5.09;100.00;104302.50;5066351;28;19971;-76
2022/03/19 04:59:15;;;;;;;;;;;;;;;5.12;100.00;104301.94;5092515;28;19977;-77
2022/03/19 05:01:40;;;;;;;;;;;;;;;5.07;100.00;104300.50;5100127;28;19927;-77
2022/03/19 05:04:07;;;;;;;;;;;;;;;5.03;100.00;104297.53;5058573;28;19916;-78
2022/03/19 05:06:33;;;;;;;;;;;;;;;5.02;100.00;104300.88;5071609;28;19924;-78
2022/03/19 05:11:42;;;;;;;;;;;;;;;5.07;100.00;104303.09;5097378;28;19985;-77
2022/03/19 05:14:09;;;;;;;;;;;;;;;5.06;100.00;104296.94;5094849;28;20372;-76
2022/03/19 05:16:35;;;;;;;;;;;;;;;5.02;100.00;104298.28;5058820;28;19921;-78
2022/03/19 05:19:01;;;;;;;;;;;;;;;5.07;100.00;104300.50;5058488;28;19942;-77
2022/03/19 05:21:27;;;;;;;;;;;;;;;5.03;100.00;104297.53;5060496;28;19924;-77
2022/03/19 05:23:52;;;;;;;;;;;;;;;4.99;100.00;104297.94;5107088;28;19917;-77
2022/03/19 05:26:18;;;;;;;;;;;;;;;4.95;100.00;104303.53;5058689;28;19920;-76
2022/03/19 05:28:43;;;;;;;;;;;;;;;4.96;100.00;104300.19;5058572;28;20267;-77
2022/03/19 05:31:09;;;;;;;;;;;;;;;4.96;100.00;104302.81;5057159;28;19928;-77
2022/03/19 05:36:24;;;;;;;;;;;;;;;4.90;100.00;104294.25;5079295;28;20291;-76
2022/03/19 05:38:49;;;;;;;;;;;;;;;4.90;100.00;104290.75;5089044;28;19916;-77
2022/03/19 05:41:15;;;;;;;;;;;;;;;4.86;100.00;104289.44;5096989;28;19943;-77
2022/03/19 05:43:43;;;;;;;;;;;;;;;4.88;100.00;104290.56;5058314;28;20386;-77
2022/03/19 05:46:08;;;;;;;;;;;;;;;4.86;100.00;104297.28;5088514;28;20079;-77
2022/03/19 05:48:33;;;;;;;;;;;;;;;4.81;100.00;104299.34;5052382;28;19928;-76
2022/03/19 05:50:59;;;;;;;;;;;;;;;4.86;100.00;104302.50;5058213;28;20019;-78
2022/03/19 05:53:36;;;;;;;;;;;;;;;4.87;100.00;104301.75;5107534;28;20390;-77
2022/03/19 05:56:02;;;;;;;;;;;;;;;4.94;100.00;104300.75;5057807;28;20011;-77
2022/03/19 05:58:28;;;;;;;;;;;;;;;5.02;100.00;104303.50;5062060;28;19948;-78
2022/03/19 06:00:53;;;;;;;;;;;;;;;5.08;100.00;104304.94;5057834;28;19939;-78
2022/03/19 06:03:24;;;;;;;;;;;;;;;5.21;100.00;104305.59;5081939;28;19969;-78
2022/03/19 06:05:49;;;;;;;;;;;;;;;5.30;100.00;104304.03;5079100;28;19920;-79
2022/03/19 06:08:15;;;;;;;;;;;;;;;5.27;100.00;104306.28;5095258;28;20355;-78
2022/03/19 06:10:40;;;;;;;;;;;;;;;5.35;100.00;104302.84;5111971;28;19916;-79
2022/03/19 06:13:11;;;;;;;;;;;;;;;5.41;100.00;104302.63;5111216;28;19923;-78
2022/03/19 06:15:37;;;;;;;;;;;;;;;5.39;100.00;104302.44;5096045;28;19944;-78
2022/03/19 06:18:02;;;;;;;;;;;;;;;5.44;100.00;104300.34;5111835;28;19931;-78
2022/03/19 06:20:27;;;;;;;;;;;;;;;5.49;100.00;104306.09;5100547;28;19920;-79
2022/03/19 06:23:00;;;;;;;;;;;;;;;5.44;100.00;104312.47;5076409;28;19959;-78
2022/03/19 06:25:26;;;;;;;;;;;;;;;5.66;100.00;104301.03;5057143;28;19917;-79
2022/03/19 06:27:51;;;;;;;;;;;;;;;5.92;100.00;104305.63;5057837;28;19916;-79
2022/03/19 06:30:16;;;;;;;;;;;;;;;6.14;100.00;104308.00;5057151;28;19916;-79
2022/03/19 06:32:42;;;;;;;;;;;;;;;6.13;100.00;104299.22;5057342;28;19916;-79
2022/03/19 06:35:08;;;;;;;;;;;;;;;6.26;100.00;104301.47;5057395;28;19927;-77
2022/03/19 06:37:33;;;;;;;;;;;;;;;6.28;100.00;104299.97;5057122;28;19925;-77
2022/03/19 06:40:06;;;;;;;;;;;;;;;6.25;100.00;104295.34;5057466;28;20245;-78
2022/03/19 06:42:31;;;;;;;;;;;;;;;6.57;100.00;104292.66;5056915;28;19920;-78
2022/03/19 06:45:07;;;;;;;;;;;;;;;6.65;100.00;104290.88;5056893;28;20028;-79
2022/03/19 06:47:32;;;;;;;;;;;;;;;6.57;100.00;104297.91;5073794;28;19952;-79
2022/03/19 06:49:57;;;;;;;;;;;;;;;6.58;100.00;104289.25;5073675;28;20355;-79
2022/03/19 06:52:24;;;;;;;;;;;;;;;6.60;100.00;104278.94;5074959;28;19917;-78
2022/03/19 06:54:51;;;;;;;;;;;;;;;6.51;100.00;104292.00;5056952;28;19917;-79
2022/03/19 06:57:16;;;;;;;;;;;;;;;6.61;100.00;104296.53;5056526;28;19917;-79
2022/03/19 06:59:42;;;;;;;;;;;;;;;6.42;100.00;104280.53;5067765;28;19920;-79
2022/03/19 07:02:07;;;;;;;;;;;;;;;6.57;100.00;104286.47;5093301;28;19967;-79
2022/03/19 07:04:32;;;;;;;;;;;;;;;6.73;100.00;104283.84;5109577;28;19924;-79
2022/03/19 07:06:57;;;;;;;;;;;;;;;6.67;100.00;104291.03;5105615;28;19916;-78
2022/03/19 07:09:23;;;;;;;;;;;;;;;6.88;100.00;104288.03;5056353;28;19921;-79
2022/03/19 07:11:48;;;;;;;;;;;;;;;6.53;100.00;104289.56;5058278;28;20414;-79
2022/03/19 07:14:19;;;;;;;;;;;;;;;6.32;100.00;104278.59;5072551;28;20294;-79
2022/03/19 07:16:44;;;;;;;;;;;;;;;6.25;100.00;104289.19;5090114;28;19917;-78
2022/03/19 07:19:10;;;;;;;;;;;;;;;6.32;100.00;104294.28;5061931;28;20004;-78
2022/03/19 07:21:35;;;;;;;;;;;;;;;6.52;100.00;104301.69;5110433;28;20003;-78
2022/03/19 07:24:01;;;;;;;;;;;;;;;6.67;100.00;104293.66;5104252;28;19916;-78
2022/03/19 07:26:26;;;;;;;;;;;;;;;6.69;100.00;104294.72;5072852;28;20011;-78
2022/03/19 07:28:52;;;;;;;;;;;;;;;6.76;100.00;104289.41;5072275;28;19993;-79
2022/03/19 07:31:17;;;;;;;;;;;;;;;6.84;100.00;104288.50;5074319;28;19912;-78
2022/03/19 07:33:45;;;;;;;;;;;;;;;6.75;100.00;104288.44;5071981;28;19916;-78
2022/03/19 07:36:10;;;;;;;;;;;;;;;6.98;100.00;104292.59;5072539;28;19961;-78
2022/03/19 07:38:35;;;;;;;;;;;;;;;7.14;100.00;104282.03;5072157;28;19918;-78
2022/03/19 07:43:46;;;;;;;;;;;;;;;7.16;100.00;104280.47;5073961;28;20353;-78
2022/03/19 07:46:11;;;;;;;;;;;;;;;6.99;100.00;104287.50;5073703;28;19948;-79
2022/03/19 07:48:37;;;;;;;;;;;;;;;7.06;100.00;104289.06;5055667;28;19960;-79
2022/03/19 07:51:02;;;;;;;;;;;;;;;6.98;100.00;104280.41;5055365;28;19928;-79
2022/03/19 07:53:29;;;;;;;;;;;;;;;7.10;100.00;104278.16;5055165;28;20232;-79
2022/03/19 07:55:55;;;;;;;;;;;;;;;7.34;100.00;104281.47;5038845;28;19925;-79
2022/03/19 07:58:22;;;;;;;;;;;;;;;7.76;100.00;104268.31;5073346;28;19922;-79
2022/03/19 08:00:47;;;;;;;;;;;;;;;8.09;100.00;104272.50;5054591;28;20349;-79
2022/03/19 08:03:12;;;;;;;;;;;;;;;8.29;100.00;104271.88;5072746;28;20211;-79
2022/03/19 08:05:40;;;;;;;;;;;;;;;8.45;100.00;104269.13;5054575;28;20363;-79
2022/03/19 08:08:06;;;;;;;;;;;;;;;8.96;100.00;104277.66;5072089;28;20011;-79
2022/03/19 08:10:32;;;;;;;;;;;;;;;8.81;100.00;104270.91;5072228;28;20024;-79
2022/03/19 08:13:07;;;;;;;;;;;;;;;8.98;100.00;104275.19;5072642;28;19948;-79
2022/03/19 08:15:33;;;;;;;;;;;;;;;9.31;100.00;104274.88;5054612;28;20027;-79
2022/03/19 08:18:01;;;;;;;;;;;;;;;9.24;100.00;104280.31;5072451;28;20374;-79
2022/03/19 08:20:27;;;;;;;;;;;;;;;9.18;100.00;104284.97;5072952;28;19917;-79
2022/03/19 08:22:52;;;;;;;;;;;;;;;9.26;100.00;104281.41;5054579;28;19924;-80
2022/03/19 08:25:18;;;;;;;;;;;;;;;9.29;100.00;104272.88;5072977;28;19999;-80
2022/03/19 08:27:43;;;;;;;;;;;;;;;9.33;100.00;104280.28;5071711;28;20360;-80
2022/03/19 08:30:08;;;;;;;;;;;;;;;9.37;100.00;104281.50;5070733;28;19924;-80
2022/03/19 08:32:40;;;;;;;;;;;;;;;9.53;100.00;104267.31;5071339;28;19955;-80
2022/03/19 08:35:06;;;;;;;;;;;;;;;9.67;100.00;104273.88;5062388;28;19917;-79
2022/03/19 08:37:32;;;;;;;;;;;;;;;9.58;100.00;104304.59;5040896;28;19928;-80
2022/03/19 08:42:46;;;;;;;;;;;;;;;9.83;100.00;104301.66;5058323;28;19924;-79
2022/03/19 08:45:12;;;;;;;;;;;;;;;9.50;100.00;104280.19;5054390;28;19924;-80
2022/03/19 08:47:38;;;;;;;;;;;;;;;9.72;100.00;104274.31;5073207;28;20005;-79
2022/03/19 08:50:03;;;;;;;;;;;;;;;9.72;100.00;104274.31;5092217;28;19928;-80
2022/03/19 08:52:29;;;;;;;;;;;;;;;10.04;100.00;104281.69;5092337;28;19924;-80
2022/03/19 08:55:03;;;;;;;;;;;;;;;9.98;100.00;104276.78;5092579;28;19916;-80
2022/03/19 08:57:31;;;;;;;;;;;;;;;10.04;100.00;104266.81;5060245;28;20372;-79
2022/03/19 08:59:56;;;;;;;;;;;;;;;10.14;100.00;104270.28;5056407;28;19982;-80
2022/03/19 09:02:22;;;;;;;;;;;;;;;10.11;100.00;104262.09;5072794;28;19916;-80
2022/03/19 09:04:47;;;;;;;;;;;;;;;9.95;100.00;104262.41;5054501;28;19916;-80
2022/03/19 09:07:14;;;;;;;;;;;;;;;9.96;100.00;104285.28;5085505;28;19912;-80
2022/03/19 09:09:40;;;;;;;;;;;;;;;9.75;100.00;104266.72;5094920;28;20118;-81
2022/03/19 09:12:05;;;;;;;;;;;;;;;9.56;100.00;104277.22;5037526;28;19916;-79
2022/03/19 09:14:33;;;;;;;;;;;;;;;9.24;100.00;104280.31;5054110;28;20215;-79
2022/03/19 09:16:59;;;;;;;;;;;;;;;9.07;100.00;104277.78;5071598;28;19959;-79
2022/03/19 09:19:27;;;;;;;;;;;;;;;9.04;100.00;104286.28;5069148;28;19974;-78
2022/03/19 09:21:52;;;;;;;;;;;;;;;9.08;100.00;104287.53;5094341;28;19916;-78
2022/03/19 09:24:24;;;;;;;;;;;;;;;9.14;100.00;104275.88;5051516;28;19924;-79
2022/03/19 09:26:49;;;;;;;;;;;;;;;9.19;100.00;104280.66;5043582;28;20391;-78
2022/03/19 09:29:15;;;;;;;;;;;;;;;9.22;100.00;104275.72;5034254;28;19917;-79
2022/03/19 09:31:41;;;;;;;;;;;;;;;9.16;100.00;104282.19;5064205;28;19936;-79
2022/03/19 09:34:08;;;;;;;;;;;;;;;9.30;100.00;104269.47;5060444;28;19943;-79
2022/03/19 09:36:33;;;;;;;;;;;;;;;9.40;100.00;104261.69;5080393;28;19931;-79
2022/03/19 09:38:58;;;;;;;;;;;;;;;9.52;100.00;104260.22;5073336;28;20299;-78
2022/03/19 09:41:23;;;;;;;;;;;;;;;9.55;100.00;104261.28;5057207;28;19992;-78
2022/03/19 09:43:49;;;;;;;;;;;;;;;9.62;100.00;104259.38;5074621;28;19928;-78
2022/03/19 09:46:15;;;;;;;;;;;;;;;9.53;100.00;104253.25;5055791;28;19967;-78
2022/03/19 09:48:40;;;;;;;;;;;;;;;9.64;100.00;104256.91;5074535;28;20011;-78
2022/03/19 09:51:08;;;;;;;;;;;;;;;9.73;100.00;104256.84;5073487;28;19916;-79
2022/03/19 09:53:34;;;;;;;;;;;;;;;9.78;100.00;104252.94;5055603;28;20451;-78
2022/03/19 09:56:02;;;;;;;;;;;;;;;9.67;100.00;104250.19;5039099;28;19956;-78
2022/03/19 09:58:27;;;;;;;;;;;;;;;9.81;100.00;104240.97;5056370;28;19917;-79
2022/03/19 10:00:54;;;;;;;;;;;;;;;9.75;100.00;104231.59;5055044;28;19923;-79
2022/03/19 10:03:22;;;;;;;;;;;;;;;9.70;100.00;104244.31;5055501;28;19938;-79
2022/03/19 10:08:41;;;;;;;;;;;;;;;9.93;100.00;104225.41;5073796;28;19974;-79
2022/03/19 10:11:10;;;;;;;;;;;;;;;10.17;100.00;104226.72;5055918;28;19948;-78
2022/03/19 10:13:46;;;;;;;;;;;;;;;10.29;100.00;104223.38;5056027;28;19956;-79
2022/03/19 10:16:17;;;;;;;;;;;;;;;10.41;100.00;104221.91;5055297;28;20014;-79
2022/03/19 10:18:42;;;;;;;;;;;;;;;10.41;100.00;104220.19;5056191;28;19971;-79
2022/03/19 10:21:14;;;;;;;;;;;;;;;10.62;100.00;104222.88;5055370;28;19921;-79
2022/03/19 10:23:40;;;;;;;;;;;;;;;10.32;100.00;104214.03;5055032;28;19923;-79
2022/03/19 10:26:06;;;;;;;;;;;;;;;10.61;100.00;104207.84;5055558;28;19916;-79
2022/03/19 10:28:32;;;;;;;;;;;;;;;10.54;100.00;104201.13;5055447;28;20327;-79
2022/03/19 10:30:58;;;;;;;;;;;;;;;10.69;100.00;104217.41;5089727;28;19916;-79
2022/03/19 10:33:28;;;;;;;;;;;;;;;10.60;100.00;104211.28;5073189;28;20239;-79
2022/03/19 10:36:06;;;;;;;;;;;;;;;10.57;100.00;104214.56;5055083;28;19916;-78
2022/03/19 10:38:40;;;;;;;;;;;;;;;10.68;100.00;104194.44;5035648;28;19920;-78
2022/03/19 10:41:05;;;;;;;;;;;;;;;10.70;100.00;104194.59;5035765;28;19928;-78
2022/03/19 10:43:32;;;;;;;;;;;;;;;10.71;100.00;104200.00;5047498;28;20315;-79
2022/03/19 10:45:58;;;;;;;;;;;;;;;10.76;100.00;104185.50;5054338;28;19924;-79
2022/03/19 10:48:24;;;;;;;;;;;;;;;10.89;100.00;104183.94;5072807;28;19921;-80
2022/03/19 10:50:50;;;;;;;;;;;;;;;10.97;100.00;104169.75;5054454;28;19916;-79
2022/03/19 10:53:17;;;;;;;;;;;;;;;11.05;100.00;104170.41;5072318;28;19920;-79
2022/03/19 10:55:42;;;;;;;;;;;;;;;11.16;100.00;104166.97;5072903;28;19960;-79
2022/03/19 10:58:11;;;;;;;;;;;;;;;11.38;100.00;104164.47;5054435;28;20350;-79
2022/03/19 11:00:36;;;;;;;;;;;;;;;11.14;100.00;104169.50;5058598;28;19920;-79
2022/03/19 11:03:06;;;;;;;;;;;;;;;11.13;100.00;104148.25;5039958;28;19981;-79
2022/03/19 11:05:33;;;;;;;;;;;;;;;11.49;100.00;104142.53;5073888;28;19932;-78
2022/03/19 11:08:01;;;;;;;;;;;;;;;12.07;100.00;104153.53;5055726;28;20363;-80
2022/03/19 11:10:31;;;;;;;;;;;;;;;11.73;100.00;104149.78;5073888;28;19921;-79
2022/03/19 11:12:59;;;;;;;;;;;;;;;11.52;100.00;104152.44;5073061;28;19920;-79
2022/03/19 11:15:25;;;;;;;;;;;;;;;11.52;100.00;104141.91;5055973;28;20013;-79
2022/03/19 11:17:53;;;;;;;;;;;;;;;11.50;100.00;104139.13;5055662;28;19916;-80
2022/03/19 11:20:19;;;;;;;;;;;;;;;11.60;100.00;104124.97;5055276;28;19965;-79
2022/03/19 11:22:46;;;;;;;;;;;;;;;11.53;100.00;104132.25;5073647;28;19921;-79
2022/03/19 11:25:16;;;;;;;;;;;;;;;11.55;100.00;104131.59;5067855;28;20264;-80
2022/03/19 11:27:43;;;;;;;;;;;;;;;11.60;100.00;104126.72;5056294;28;19912;-80
2022/03/19 11:30:26;;;;;;;;;;;;;;;11.55;100.00;104117.50;5070324;28;20073;-79
2022/03/19 11:33:12;;;;;;;;;;;;;;;11.66;100.00;104119.31;5058285;28;19917;-80
2022/03/19 11:35:38;;;;;;;;;;;;;;;11.75;100.00;104109.50;5073347;28;19920;-78
2022/03/19 11:38:20;;;;;;;;;;;;;;;11.95;100.00;104110.28;5055946;28;19921;-79
2022/03/19 11:40:47;;;;;;;;;;;;;;;11.93;100.00;104096.00;5061966;28;19973;-79
2022/03/19 11:43:39;;;;;;;;;;;;;;;11.76;100.00;104102.50;5072741;28;19928;-79
2022/03/19 11:46:05;;;;;;;;;;;;;;;11.98;100.00;104097.34;5053038;28;19920;-79
2022/03/19 11:48:47;;;;;;;;;;;;;;;12.17;100.00;104099.75;5055462;28;19920;-79
2022/03/19 11:51:25;;;;;;;;;;;;;;;12.01;100.00;104098.50;5082271;28;19921;-80
2022/03/19 11:54:03;;;;;;;;;;;;;;;12.21;100.00;104076.34;5055342;28;19917;-77
2022/03/19 11:56:48;;;;;;;;;;;;;;;12.03;100.00;104085.41;5050572;28;20302;-79
2022/03/19 11:59:16;;;;;;;;;;;;;;;11.93;100.00;104072.25;5078708;28;20269;-79
2022/03/19 12:01:55;;;;;;;;;;;;;;;12.46;100.00;104062.47;5073871;28;19921;-79
2022/03/19 12:04:47;;;;;;;;;;;;;;;12.12;100.00;104090.50;5074257;28;19969;-78
2022/03/19 12:07:32;;;;;;;;;;;;;;;12.27;100.00;104064.41;5064359;28;19959;-80
2022/03/19 12:09:58;;;;;;;;;;;;;;;12.38;100.00;104051.28;5058961;28;20334;-79
2022/03/19 12:12:24;;;;;;;;;;;;;;;12.54;100.00;104056.06;5064904;28;19920;-79
2022/03/19 12:14:49;;;;;;;;;;;;;;;13.00;100.00;104047.22;5053669;28;19928;-82
2022/03/19 12:17:26;;;;;;;;;;;;;;;12.65;100.00;104083.34;5079331;28;19926;-80
2022/03/19 12:19:54;;;;;;;;;;;;;;;12.32;100.00;104063.06;5058965;28;19917;-80
2022/03/19 12:22:42;;;;;;;;;;;;;;;12.32;100.00;104052.50;5072162;28;19917;-80
2022/03/19 12:25:36;;;;;;;;;;;;;;;12.86;100.00;104047.06;5057070;28;19932;-80
2022/03/19 12:28:02;;;;;;;;;;;;;;;12.61;100.00;104045.97;5075375;28;19923;-80
2022/03/19 12:30:29;;;;;;;;;;;;;;;12.53;100.00;104037.44;5074315;28;19920;-77
2022/03/19 12:32:56;;;;;;;;;;;;;;;12.65;100.00;104034.84;5074986;28;19916;-79
2022/03/19 12:35:25;;;;;;;;;;;;;;;12.58;100.00;104030.78;5060700;28;19959;-80
2022/03/19 12:37:51;;;;;;;;;;;;;;;12.66;97.72;104026.09;5072448;28;20001;-81
2022/03/19 12:40:18;;;;;;;;;;;;;;;12.67;100.00;104027.94;5038035;28;19971;-81
2022/03/19 12:42:49;;;;;;;;;;;;;;;12.69;99.18;104008.75;5076685;28;19924;-80
2022/03/19 12:45:14;;;;;;;;;;;;;;;12.90;90.67;104004.19;5073902;28;19920;-78
2022/03/19 12:47:40;;;;;;;;;;;;;;;12.73;72.16;104018.75;5078175;28;19917;-80
2022/03/19 12:50:05;;;;;;;;;;;;;;;12.70;77.65;104012.31;5052266;28;19921;-79
2022/03/19 12:52:33;;;;;;;;;;;;;;;12.66;77.68;104010.22;5071324;28;20341;-81